logo
Search for airport 
image banner adimage banner adimage banner ad
image banner ad

FWBG - Bangula

Located in Bangula, Malawi

ICAO - FWBG, IATA -

Data provided by Airmate  

General information

Coordinates: S16°34'60" E35°7'0"
Elevation is 302 feet MSL.
 
View others Airports in Nsanje

Operational data

Special qualification required
Current time UTC:
Current local time:
Weather at : - ( 0 km )
METAR: KUNV 131953Z 29018G30KT 10SM SCT045 11/00 A2985
View NOTAMs / SUP AIP / TFR affecting this airport [VIEW]
Communications frequencies: [VIEW]

Runways:

RWY identifierQFULength (ft)Width (ft)SurfaceLDA (ft)
1700UNK
3500UNK

Airport contact information

Address: Bangula Malawi

Satellite view of FWBG